createdAt,value
2024-02-17T00:00:06.745Z,70.06
2024-02-17T00:02:34.179Z,69.91
2024-02-17T00:05:01.125Z,70.33
2024-02-17T00:07:28.297Z,70.24
2024-02-17T00:09:55.004Z,70.62
2024-02-17T00:12:21.756Z,70.46
2024-02-17T00:14:48.784Z,70.60
2024-02-17T00:17:15.580Z,70.54
2024-02-17T00:19:42.772Z,70.71
2024-02-17T00:22:09.614Z,71.18
2024-02-17T00:24:36.327Z,71.37
2024-02-17T00:27:03.814Z,71.58
2024-02-17T00:29:30.730Z,71.36
2024-02-17T00:31:57.801Z,71.45
2024-02-17T00:34:25.140Z,71.66
2024-02-17T00:36:52.415Z,71.39
2024-02-17T00:39:19.342Z,71.24
2024-02-17T00:41:47.127Z,71.27
2024-02-17T00:44:14.114Z,70.60
2024-02-17T00:46:41.427Z,70.00
2024-02-17T00:49:10.741Z,69.23
2024-02-17T00:51:37.850Z,68.60
2024-02-17T00:54:04.694Z,68.54
2024-02-17T00:56:31.463Z,68.65
2024-02-17T00:58:58.197Z,68.02
2024-02-17T01:01:32.915Z,68.44
2024-02-17T01:04:05.301Z,68.58
2024-02-17T01:06:32.312Z,68.33
2024-02-17T01:08:59.037Z,68.35
2024-02-17T01:11:25.902Z,68.76
2024-02-17T01:13:52.695Z,68.34
2024-02-17T01:16:19.421Z,68.60
2024-02-17T01:18:46.476Z,68.44
2024-02-17T01:21:13.449Z,68.24
2024-02-17T01:23:40.202Z,68.10
2024-02-17T01:26:08.259Z,68.39
2024-02-17T01:28:35.184Z,68.43
2024-02-17T01:31:02.032Z,68.14
2024-02-17T01:33:28.927Z,68.32
2024-02-17T01:35:57.973Z,68.75
2024-02-17T01:38:24.643Z,68.42
2024-02-17T01:40:51.449Z,68.61
2024-02-17T01:43:18.258Z,68.77
2024-02-17T01:45:46.857Z,68.49
2024-02-17T01:48:14.440Z,68.28
2024-02-17T01:50:41.746Z,68.02
2024-02-17T01:53:08.856Z,68.09
2024-02-17T01:55:36.244Z,68.05
2024-02-17T01:58:03.140Z,68.08
2024-02-17T02:00:30.464Z,67.52
2024-02-17T02:02:57.552Z,67.44
2024-02-17T02:05:24.645Z,67.32
2024-02-17T02:07:51.360Z,67.37
2024-02-17T02:10:18.206Z,67.30
2024-02-17T02:12:45.960Z,66.98
2024-02-17T02:15:14.298Z,66.69
2024-02-17T02:17:42.441Z,66.41
2024-02-17T02:20:13.195Z,66.20
2024-02-17T02:22:40.277Z,66.48
2024-02-17T02:25:10.444Z,66.28
2024-02-17T02:27:43.591Z,66.32
2024-02-17T02:30:10.986Z,66.65
2024-02-17T02:32:37.799Z,66.64
2024-02-17T02:35:05.552Z,66.44
2024-02-17T02:37:32.400Z,66.30
2024-02-17T02:39:59.098Z,65.92
2024-02-17T02:42:25.953Z,66.48
2024-02-17T02:44:53.195Z,66.83
2024-02-17T02:47:19.973Z,66.70
2024-02-17T02:49:46.997Z,67.59
2024-02-17T02:52:15.205Z,67.58
2024-02-17T02:54:42.134Z,67.44
2024-02-17T02:57:09.584Z,68.03
2024-02-17T02:59:36.509Z,68.49
2024-02-17T03:02:05.936Z,68.39
2024-02-17T03:04:32.807Z,68.73
2024-02-17T03:06:59.870Z,68.68
2024-02-17T03:09:26.848Z,68.79
2024-02-17T03:11:53.680Z,68.87
2024-02-17T03:14:22.716Z,69.46
2024-02-17T03:16:49.460Z,69.16
2024-02-17T03:19:17.038Z,69.96
2024-02-17T03:21:43.923Z,69.64
2024-02-17T03:24:11.687Z,70.39
2024-02-17T03:26:38.745Z,70.27
2024-02-17T03:29:05.510Z,70.17
2024-02-17T03:31:32.357Z,70.55
2024-02-17T03:34:06.835Z,70.16
2024-02-17T03:36:34.422Z,70.39
2024-02-17T03:39:01.251Z,70.54
2024-02-17T03:41:29.470Z,70.80
2024-02-17T03:43:56.467Z,70.08
2024-02-17T03:46:23.166Z,69.94
2024-02-17T03:48:51.473Z,69.63
2024-02-17T03:51:18.454Z,69.46
2024-02-17T03:53:45.189Z,69.38
2024-02-17T03:56:15.436Z,69.60
2024-02-17T03:58:42.185Z,69.50
2024-02-17T04:01:09.073Z,69.69
2024-02-17T04:03:35.966Z,69.26
2024-02-17T04:06:03.870Z,69.01
2024-02-17T04:08:30.634Z,68.83
2024-02-17T04:10:59.519Z,68.90
2024-02-17T04:13:26.581Z,69.04
2024-02-17T04:15:53.411Z,68.70
2024-02-17T04:18:20.304Z,68.54
2024-02-17T04:20:48.728Z,68.40
2024-02-17T04:23:15.493Z,68.21
2024-02-17T04:25:43.157Z,68.31
2024-02-17T04:28:09.815Z,67.72
2024-02-17T04:30:36.832Z,67.89
2024-02-17T04:33:04.923Z,67.76
2024-02-17T04:35:31.847Z,67.81
2024-02-17T04:37:58.623Z,67.44
2024-02-17T04:40:25.418Z,67.80
2024-02-17T04:42:53.719Z,67.30
2024-02-17T04:45:20.627Z,67.56
2024-02-17T04:47:47.743Z,67.99
2024-02-17T04:50:14.646Z,68.00
2024-02-17T04:52:42.554Z,68.13
2024-02-17T04:55:10.346Z,68.46
2024-02-17T04:57:37.322Z,67.66
2024-02-17T05:00:07.270Z,67.85
2024-02-17T05:02:37.649Z,68.08
2024-02-17T05:05:04.872Z,68.17
2024-02-17T05:07:31.800Z,68.13
2024-02-17T05:09:58.648Z,68.33
2024-02-17T05:12:25.723Z,68.88
2024-02-17T05:14:52.776Z,69.01
2024-02-17T05:17:19.591Z,68.68
2024-02-17T05:19:47.731Z,68.28
2024-02-17T05:22:14.831Z,67.89
2024-02-17T05:24:44.927Z,67.78
2024-02-17T05:27:12.293Z,67.89
2024-02-17T05:29:40.022Z,67.88
2024-02-17T05:32:08.248Z,66.96
2024-02-17T05:34:35.755Z,67.37
2024-02-17T05:37:05.136Z,67.43
2024-02-17T05:39:33.009Z,67.88
2024-02-17T05:42:00.499Z,67.68
2024-02-17T05:44:27.922Z,67.85
2024-02-17T05:46:54.643Z,67.55
2024-02-17T05:49:23.368Z,67.63
2024-02-17T05:51:50.684Z,68.10
2024-02-17T05:54:19.085Z,67.80
2024-02-17T05:56:46.763Z,67.02
2024-02-17T05:59:15.101Z,67.21
2024-02-17T06:01:42.920Z,67.88
2024-02-17T06:04:10.002Z,67.38
2024-02-17T06:06:36.919Z,67.46
2024-02-17T06:09:03.763Z,67.36
2024-02-17T06:11:30.565Z,67.35
2024-02-17T06:13:58.244Z,67.40
2024-02-17T06:16:28.557Z,67.18
2024-02-17T06:19:14.212Z,67.72
2024-02-17T06:21:41.121Z,67.28
2024-02-17T06:24:07.866Z,67.57
2024-02-17T06:26:36.921Z,67.72
2024-02-17T06:29:07.505Z,67.74
2024-02-17T06:31:39.696Z,67.88
2024-02-17T06:34:07.607Z,67.78
2024-02-17T06:36:35.116Z,67.98
2024-02-17T06:39:01.811Z,68.07
2024-02-17T06:41:28.671Z,67.37
2024-02-17T06:43:55.433Z,67.69
2024-02-17T06:46:22.551Z,67.42
2024-02-17T06:48:52.058Z,67.73
2024-02-17T06:51:21.113Z,67.83
2024-02-17T06:53:48.220Z,67.51
2024-02-17T06:56:15.392Z,67.40
2024-02-17T06:58:42.799Z,66.93
2024-02-17T07:01:10.863Z,66.89
2024-02-17T07:03:38.080Z,66.95
2024-02-17T07:06:06.153Z,66.65
2024-02-17T07:08:33.189Z,66.88
2024-02-17T07:11:00.707Z,66.94
2024-02-17T07:13:27.699Z,67.05
2024-02-17T07:15:54.467Z,67.27
2024-02-17T07:18:21.374Z,67.66
2024-02-17T07:20:52.152Z,68.22
2024-02-17T07:23:21.944Z,67.64
2024-02-17T07:25:49.118Z,67.70
2024-02-17T07:28:18.135Z,67.22
2024-02-17T07:30:46.022Z,67.65
2024-02-17T07:33:13.643Z,67.55
2024-02-17T07:35:43.979Z,67.71
2024-02-17T07:38:12.279Z,68.09
2024-02-17T07:40:39.972Z,67.96
2024-02-17T07:43:07.158Z,68.02
2024-02-17T07:45:34.491Z,67.88
2024-02-17T07:48:01.501Z,68.12
2024-02-17T07:50:28.638Z,68.53
2024-02-17T07:52:55.558Z,68.07
2024-02-17T07:55:23.043Z,67.48
2024-02-17T07:57:50.396Z,66.99
2024-02-17T08:00:18.700Z,66.37
2024-02-17T08:02:47.531Z,65.49
2024-02-17T08:05:16.009Z,65.43
2024-02-17T08:07:46.344Z,65.36
2024-02-17T08:10:13.364Z,65.44
2024-02-17T08:12:40.264Z,64.89
2024-02-17T08:15:08.476Z,65.22
2024-02-17T08:17:36.281Z,64.45
2024-02-17T08:20:05.440Z,64.79
2024-02-17T08:22:33.217Z,64.29
2024-02-17T08:24:59.952Z,65.29
2024-02-17T08:27:26.738Z,64.71
2024-02-17T08:29:53.584Z,64.35
2024-02-17T08:32:20.342Z,64.02
2024-02-17T08:34:48.124Z,64.35
2024-02-17T08:37:15.098Z,63.98
2024-02-17T08:39:41.853Z,63.79
2024-02-17T08:42:08.747Z,64.24
2024-02-17T08:44:35.572Z,64.95
2024-02-17T08:47:02.231Z,65.49
2024-02-17T08:49:28.968Z,65.18
2024-02-17T08:51:55.831Z,65.61
2024-02-17T08:54:26.764Z,66.16
2024-02-17T08:56:55.071Z,66.40
2024-02-17T08:59:22.165Z,66.84
2024-02-17T09:01:49.086Z,66.81
2024-02-17T09:04:15.969Z,66.50
2024-02-17T09:06:42.946Z,65.76
2024-02-17T09:09:13.036Z,65.88
2024-02-17T09:11:39.881Z,65.61
2024-02-17T09:14:06.670Z,64.71
2024-02-17T09:16:33.312Z,64.60
2024-02-17T09:19:00.101Z,64.76
2024-02-17T09:21:26.860Z,64.45
2024-02-17T09:23:53.616Z,64.64
2024-02-17T09:26:20.337Z,64.68
2024-02-17T09:28:47.184Z,64.66
2024-02-17T09:31:13.841Z,64.67
2024-02-17T09:33:40.806Z,65.03
2024-02-17T09:36:09.165Z,65.67
2024-02-17T09:38:36.055Z,65.88
2024-02-17T09:41:02.755Z,66.16
2024-02-17T09:43:29.634Z,66.73
2024-02-17T09:45:57.461Z,66.66
2024-02-17T09:48:26.432Z,66.58
2024-02-17T09:50:55.384Z,67.46
2024-02-17T09:53:23.569Z,67.24
2024-02-17T09:55:50.484Z,67.44
2024-02-17T09:58:17.301Z,67.85
2024-02-17T10:00:44.096Z,67.99
2024-02-17T10:03:11.635Z,67.84
2024-02-17T10:05:38.755Z,68.06
2024-02-17T10:08:06.424Z,67.98
2024-02-17T10:10:33.153Z,68.28
2024-02-17T10:13:00.372Z,67.72
2024-02-17T10:15:27.901Z,67.89
2024-02-17T10:17:56.724Z,68.26
2024-02-17T10:20:23.745Z,68.64
2024-02-17T10:22:51.218Z,68.80
2024-02-17T10:25:20.127Z,68.46
2024-02-17T10:27:48.577Z,68.43
2024-02-17T10:30:19.060Z,68.54
2024-02-17T10:32:46.094Z,68.09
2024-02-17T10:35:14.504Z,67.94
2024-02-17T10:37:41.670Z,68.04
2024-02-17T10:40:14.424Z,67.84
2024-02-17T10:42:41.797Z,67.67
2024-02-17T10:45:09.187Z,67.27
2024-02-17T10:47:39.309Z,67.30
2024-02-17T10:50:17.136Z,67.07
2024-02-17T10:52:53.495Z,67.25
2024-02-17T10:55:28.510Z,67.49
2024-02-17T10:57:55.456Z,67.60
2024-02-17T11:00:23.688Z,67.60
2024-02-17T11:02:56.690Z,67.49
2024-02-17T11:05:24.311Z,67.32
2024-02-17T11:07:52.579Z,67.37
2024-02-17T11:10:29.431Z,68.30
2024-02-17T11:13:01.424Z,68.08
2024-02-17T11:15:31.347Z,68.13
2024-02-17T11:18:01.192Z,68.20
2024-02-17T11:20:28.908Z,68.33
2024-02-17T11:23:01.420Z,68.20
2024-02-17T11:25:42.673Z,68.49
2024-02-17T11:28:23.507Z,68.68
2024-02-17T11:31:01.410Z,68.57
2024-02-17T11:33:34.259Z,68.67
2024-02-17T11:36:06.123Z,67.76
2024-02-17T11:38:33.126Z,68.56
2024-02-17T11:41:04.078Z,68.22
2024-02-17T11:43:33.337Z,68.45
2024-02-17T11:46:01.125Z,68.55
2024-02-17T11:48:33.082Z,68.09
2024-02-17T11:51:28.822Z,68.17
2024-02-17T11:53:57.258Z,68.59
2024-02-17T11:56:25.837Z,68.29
2024-02-17T11:58:55.029Z,68.30
2024-02-17T12:01:22.038Z,68.52
2024-02-17T12:03:49.540Z,68.14
2024-02-17T12:06:17.041Z,68.28
2024-02-17T12:08:43.930Z,67.89
2024-02-17T12:11:11.407Z,67.72
2024-02-17T12:13:38.449Z,67.70
2024-02-17T12:16:07.162Z,67.70
2024-02-17T12:18:37.647Z,67.53
2024-02-17T12:21:08.337Z,67.84
2024-02-17T12:23:49.368Z,67.98
2024-02-17T12:26:24.734Z,67.76
2024-02-17T12:29:05.082Z,68.49
2024-02-17T12:31:32.846Z,68.33
2024-02-17T12:34:00.078Z,68.59
2024-02-17T12:36:30.744Z,68.66
2024-02-17T12:39:00.198Z,68.41
2024-02-17T12:41:27.791Z,68.64
2024-02-17T12:43:56.557Z,68.89
2024-02-17T12:46:27.774Z,68.51
2024-02-17T12:48:55.415Z,68.43
2024-02-17T12:51:24.726Z,68.32
2024-02-17T12:53:52.462Z,68.10
2024-02-17T12:56:24.693Z,68.19
2024-02-17T12:58:53.148Z,68.58
2024-02-17T13:01:20.555Z,68.52
2024-02-17T13:03:47.907Z,68.19
2024-02-17T13:06:16.292Z,68.25
2024-02-17T13:08:47.912Z,68.27
2024-02-17T13:11:15.943Z,68.05
2024-02-17T13:13:42.623Z,68.36
2024-02-17T13:16:09.404Z,68.15
2024-02-17T13:18:36.390Z,68.46
2024-02-17T13:21:04.295Z,68.00
2024-02-17T13:23:31.042Z,67.62
2024-02-17T13:25:57.756Z,67.02
2024-02-17T13:28:24.515Z,66.69
2024-02-17T13:30:51.280Z,67.47
2024-02-17T13:33:18.673Z,66.78
2024-02-17T13:35:45.545Z,66.36
2024-02-17T13:38:22.049Z,66.20
2024-02-17T13:40:56.278Z,66.07
2024-02-17T13:43:23.117Z,65.38
2024-02-17T13:45:50.155Z,65.87
2024-02-17T13:48:17.310Z,65.13
2024-02-17T13:50:44.324Z,64.51
2024-02-17T13:53:11.057Z,64.30
2024-02-17T13:55:39.397Z,64.45
2024-02-17T13:58:07.853Z,64.45
2024-02-17T14:00:34.837Z,64.51
2024-02-17T14:03:02.769Z,64.60
2024-02-17T14:05:29.692Z,64.44
2024-02-17T14:07:57.819Z,64.10
2024-02-17T14:10:24.866Z,64.17
2024-02-17T14:12:52.145Z,63.63
2024-02-17T14:15:20.534Z,64.09
2024-02-17T14:17:48.066Z,64.02
2024-02-17T14:20:15.095Z,64.11
2024-02-17T14:22:41.891Z,63.80
2024-02-17T14:25:08.947Z,63.40
2024-02-17T14:27:37.585Z,63.05
2024-02-17T14:30:08.371Z,63.71
2024-02-17T14:32:35.213Z,63.67
2024-02-17T14:35:03.017Z,63.28
2024-02-17T14:37:31.158Z,62.96
2024-02-17T14:40:00.695Z,63.16
2024-02-17T14:42:27.664Z,62.78
2024-02-17T14:44:54.450Z,62.42
2024-02-17T14:47:21.306Z,62.66
2024-02-17T14:49:49.285Z,62.62
2024-02-17T14:52:18.430Z,62.51
2024-02-17T14:54:45.793Z,62.92
2024-02-17T14:57:16.460Z,61.97
2024-02-17T14:59:43.188Z,61.76
2024-02-17T15:02:10.237Z,61.89
2024-02-17T15:04:37.003Z,61.79
2024-02-17T15:07:04.069Z,61.87
2024-02-17T15:09:31.846Z,61.96
2024-02-17T15:11:59.958Z,61.75
2024-02-17T15:14:29.297Z,61.89
2024-02-17T15:17:01.488Z,61.84
2024-02-17T15:19:28.333Z,61.73
2024-02-17T15:21:55.354Z,61.94
2024-02-17T15:24:22.160Z,61.65
2024-02-17T15:26:48.873Z,60.97
2024-02-17T15:29:15.618Z,61.46
2024-02-17T15:31:42.367Z,61.74
2024-02-17T15:34:09.141Z,61.80
2024-02-17T15:36:37.535Z,61.70
2024-02-17T15:39:07.285Z,61.45
2024-02-17T15:41:36.523Z,61.36
2024-02-17T15:44:06.602Z,61.36
2024-02-17T15:46:33.918Z,61.39
2024-02-17T15:49:00.761Z,61.11
2024-02-17T15:51:27.558Z,61.01
2024-02-17T15:53:54.253Z,60.99
2024-02-17T15:56:21.049Z,60.31
2024-02-17T15:58:47.714Z,60.04
2024-02-17T16:01:14.804Z,60.65
2024-02-17T16:03:41.921Z,60.45
2024-02-17T16:06:11.795Z,60.67
2024-02-17T16:08:42.830Z,61.15
2024-02-17T16:11:11.843Z,61.01
2024-02-17T16:13:45.324Z,60.93
2024-02-17T16:16:16.448Z,60.52
2024-02-17T16:18:46.881Z,59.90
2024-02-17T16:21:15.676Z,59.90
2024-02-17T16:23:42.442Z,59.58
2024-02-17T16:26:09.871Z,59.61
2024-02-17T16:28:36.615Z,59.58
2024-02-17T16:31:04.663Z,59.24
2024-02-17T16:33:36.105Z,59.51
2024-02-17T16:36:07.132Z,58.94
2024-02-17T16:38:34.112Z,58.70
2024-02-17T16:41:03.475Z,58.57
2024-02-17T16:43:33.096Z,58.43
2024-02-17T16:46:01.654Z,58.66
2024-02-17T16:48:29.258Z,58.05
2024-02-17T16:50:56.874Z,58.29
2024-02-17T16:53:23.702Z,58.40
2024-02-17T16:55:50.407Z,58.81
2024-02-17T16:58:17.158Z,58.80
2024-02-17T17:00:44.093Z,59.01
2024-02-17T17:03:11.531Z,58.49
2024-02-17T17:05:38.349Z,58.49
2024-02-17T17:08:07.454Z,58.68
2024-02-17T17:10:34.174Z,58.87
2024-02-17T17:13:01.171Z,58.86
2024-02-17T17:15:27.960Z,58.58
2024-02-17T17:17:54.824Z,58.60
2024-02-17T17:20:24.578Z,57.95
2024-02-17T17:22:51.401Z,58.01
2024-02-17T17:25:18.125Z,58.66
2024-02-17T17:27:44.970Z,58.57
2024-02-17T17:30:15.863Z,58.43
2024-02-17T17:32:42.798Z,58.42
2024-02-17T17:35:14.652Z,58.60
2024-02-17T17:37:42.005Z,58.26
2024-02-17T17:40:12.235Z,57.77
2024-02-17T17:45:54.533Z,58.00
2024-02-17T17:48:21.505Z,57.51
2024-02-17T17:50:49.654Z,57.56
2024-02-17T17:53:24.645Z,57.17
2024-02-17T17:55:51.563Z,56.52
2024-02-17T17:58:21.085Z,56.28
2024-02-17T18:00:48.568Z,56.26
2024-02-17T18:03:15.614Z,56.09
2024-02-17T18:05:42.479Z,56.02
2024-02-17T18:08:10.506Z,55.84
2024-02-17T18:10:37.239Z,56.00
2024-02-17T18:13:06.535Z,55.97
2024-02-17T18:15:33.268Z,55.84
2024-02-17T18:18:00.608Z,56.23
2024-02-17T18:20:29.382Z,56.58
2024-02-17T18:22:56.056Z,56.47
2024-02-17T18:25:22.782Z,56.50
2024-02-17T18:27:49.918Z,56.58
2024-02-17T18:30:16.748Z,56.68
2024-02-17T18:32:47.305Z,56.73
2024-02-17T18:35:14.102Z,57.01
2024-02-17T18:37:43.795Z,56.69
2024-02-17T18:40:11.143Z,57.18
2024-02-17T18:42:38.411Z,56.83
2024-02-17T18:45:05.649Z,57.11
2024-02-17T18:47:32.569Z,56.57
2024-02-17T18:50:02.515Z,56.18
2024-02-17T18:52:30.284Z,56.63
2024-02-17T18:54:57.797Z,56.39
2024-02-17T18:57:24.572Z,56.88
2024-02-17T18:59:51.366Z,57.04
2024-02-17T19:02:18.381Z,57.59
2024-02-17T19:04:56.463Z,58.26
2024-02-17T19:07:23.245Z,58.29
2024-02-17T19:09:49.983Z,58.57
2024-02-17T19:12:16.822Z,58.60
2024-02-17T19:14:49.055Z,58.92
2024-02-17T19:17:18.667Z,59.21
2024-02-17T19:19:47.879Z,58.86
2024-02-17T19:22:17.444Z,59.38
2024-02-17T19:24:44.381Z,58.99
2024-02-17T19:27:13.999Z,59.31
2024-02-17T19:29:44.222Z,59.23
2024-02-17T19:32:10.955Z,59.83
2024-02-17T19:34:37.870Z,59.95
2024-02-17T19:37:05.050Z,59.70
2024-02-17T19:39:34.367Z,59.40
2024-02-17T19:42:10.095Z,59.53
2024-02-17T19:44:39.168Z,59.48
2024-02-17T19:47:06.263Z,59.98
2024-02-17T19:49:35.236Z,59.69
2024-02-17T19:52:06.776Z,59.94
2024-02-17T19:54:33.944Z,59.84
2024-02-17T19:57:29.415Z,59.88
2024-02-17T19:59:56.119Z,60.26
2024-02-17T20:02:23.894Z,60.69
2024-02-17T20:04:51.041Z,60.39
2024-02-17T20:07:24.691Z,60.71
2024-02-17T20:09:56.660Z,61.17
2024-02-17T20:12:26.712Z,60.47
2024-02-17T20:15:01.565Z,60.27
2024-02-17T20:17:36.086Z,60.00
2024-02-17T20:20:10.450Z,60.00
2024-02-17T20:22:39.117Z,60.15
2024-02-17T20:25:06.439Z,59.67
2024-02-17T20:27:33.562Z,59.74
2024-02-17T20:30:00.462Z,59.87
2024-02-17T20:32:34.780Z,60.04
2024-02-17T20:35:18.508Z,59.80
2024-02-17T20:38:50.902Z,59.87
2024-02-17T20:41:26.777Z,60.08
2024-02-17T20:43:53.590Z,60.13
2024-02-17T20:46:20.303Z,60.34
2024-02-17T20:48:47.156Z,60.45
2024-02-17T20:51:16.837Z,60.36
2024-02-17T20:53:43.754Z,60.28
2024-02-17T20:56:13.351Z,60.49
2024-02-17T20:58:40.391Z,60.36
2024-02-17T21:01:08.678Z,60.65
2024-02-17T21:03:35.734Z,60.64
2024-02-17T21:06:04.501Z,60.63
2024-02-17T21:08:31.430Z,60.40
2024-02-17T21:10:58.503Z,61.01
2024-02-17T21:13:25.419Z,60.59
2024-02-17T21:15:52.435Z,60.58
2024-02-17T21:18:19.659Z,60.62
2024-02-17T21:20:46.367Z,60.92
2024-02-17T21:23:13.301Z,61.01
2024-02-17T21:25:43.061Z,61.16
2024-02-17T21:28:13.297Z,60.93
2024-02-17T21:30:40.129Z,61.21
2024-02-17T21:33:07.030Z,61.30
2024-02-17T21:35:33.865Z,61.79
2024-02-17T21:38:01.537Z,61.23
2024-02-17T21:40:28.342Z,61.23
2024-02-17T21:42:55.589Z,61.55
2024-02-17T21:45:24.930Z,61.77
2024-02-17T21:47:51.825Z,61.67
2024-02-17T21:50:18.810Z,61.65
2024-02-17T21:52:45.566Z,61.76
2024-02-17T21:55:15.785Z,61.87
2024-02-17T21:57:43.125Z,61.96
2024-02-17T22:00:10.710Z,62.27
2024-02-17T22:02:37.459Z,61.76
2024-02-17T22:05:04.452Z,61.88
2024-02-17T22:07:32.045Z,62.08
2024-02-17T22:09:58.914Z,62.18
2024-02-17T22:12:27.401Z,61.85
2024-02-17T22:14:54.235Z,61.93
2024-02-17T22:17:20.978Z,61.92
2024-02-17T22:19:50.687Z,62.80
2024-02-17T22:22:18.369Z,62.45
2024-02-17T22:24:45.063Z,62.99
2024-02-17T22:27:11.772Z,62.79
2024-02-17T22:29:38.833Z,63.29
2024-02-17T22:32:05.865Z,63.48
2024-02-17T22:34:32.852Z,63.19
2024-02-17T22:36:59.847Z,62.69
2024-02-17T22:39:26.649Z,63.25
2024-02-17T22:41:55.041Z,63.46
2024-02-17T22:44:21.924Z,63.63
2024-02-17T22:46:48.820Z,63.64
2024-02-17T22:49:15.592Z,64.00
2024-02-17T22:51:43.650Z,64.28
2024-02-17T22:54:10.943Z,64.46
2024-02-17T22:56:37.772Z,64.11
2024-02-17T22:59:04.535Z,63.88
2024-02-17T23:01:31.389Z,63.74
2024-02-17T23:03:58.259Z,64.20
2024-02-17T23:06:25.194Z,63.79
2024-02-17T23:08:52.086Z,63.81
2024-02-17T23:11:18.947Z,63.78
2024-02-17T23:13:45.638Z,64.38
2024-02-17T23:16:12.351Z,63.84
2024-02-17T23:18:39.272Z,64.16
2024-02-17T23:21:06.221Z,63.86
2024-02-17T23:23:33.159Z,63.56
2024-02-17T23:25:59.875Z,63.75
2024-02-17T23:28:28.100Z,63.47
2024-02-17T23:30:54.839Z,63.75
2024-02-17T23:33:21.660Z,63.79
2024-02-17T23:35:48.766Z,63.73
2024-02-17T23:38:17.064Z,63.64
2024-02-17T23:40:43.756Z,63.14
2024-02-17T23:43:10.583Z,63.41
2024-02-17T23:45:37.422Z,64.19
2024-02-17T23:48:07.106Z,63.95
2024-02-17T23:50:34.575Z,63.89
2024-02-17T23:53:01.284Z,64.15
2024-02-17T23:55:27.948Z,64.03
2024-02-17T23:57:54.833Z,64.20
